Time;durP1;ratioP1;P1;durP2;ratioP2;P2;SDS_P1;SDS_P2;PMS_P1;PMS_P2;Temp;Humidity;BMP_temperature;BMP_pressure;BME280_temperature;BME280_humidity;BME280_pressure;Samples;Min_cycle;Max_cycle;Signal;HPM_P1;HPM_P2
2023/12/07 00:01:08;;;;;;;21.08;12.02;;;;;;;-0.63;100.00;101906.69;5042582;28;20113;-70
2023/12/07 00:03:33;;;;;;;26.67;13.15;;;;;;;-0.53;100.00;101916.50;5041749;28;20025;-70
2023/12/07 00:05:59;;;;;;;24.90;13.35;;;;;;;-0.50;100.00;101910.22;5041038;28;20507;-71
2023/12/07 00:08:24;;;;;;;26.38;16.02;;;;;;;-0.53;100.00;101910.41;5023368;28;20379;-70
2023/12/07 00:10:50;;;;;;;27.83;15.52;;;;;;;-0.56;100.00;101905.38;5037062;28;20514;-70
2023/12/07 00:13:15;;;;;;;22.33;13.02;;;;;;;-0.60;100.00;101902.13;5027146;28;20048;-71
2023/12/07 00:15:40;;;;;;;27.85;13.63;;;;;;;-0.68;100.00;101914.88;5040601;28;20060;-71
2023/12/07 00:18:06;;;;;;;29.73;14.55;;;;;;;-0.83;100.00;101889.66;5041483;28;20400;-71
2023/12/07 00:20:31;;;;;;;23.50;13.63;;;;;;;-0.84;100.00;101906.28;5042334;28;20041;-70
2023/12/07 00:22:56;;;;;;;31.48;16.20;;;;;;;-0.91;100.00;101905.84;5042485;28;20109;-70
2023/12/07 00:25:22;;;;;;;26.83;14.63;;;;;;;-1.00;100.00;101903.78;5034817;28;20025;-71
2023/12/07 00:27:48;;;;;;;28.60;13.20;;;;;;;-1.11;100.00;101907.06;5044325;28;20067;-70
2023/12/07 00:30:14;;;;;;;23.48;12.70;;;;;;;-1.14;100.00;101907.25;5035197;28;20113;-70
2023/12/07 00:32:43;;;;;;;25.30;12.98;;;;;;;-1.21;100.00;101908.56;5021828;28;20041;-70
2023/12/07 00:35:09;;;;;;;21.55;11.98;;;;;;;-1.24;100.00;101900.91;5044259;28;20031;-71
2023/12/07 00:37:34;;;;;;;24.70;12.68;;;;;;;-1.28;100.00;101896.78;5041680;28;20037;-71
2023/12/07 00:40:00;;;;;;;19.35;10.15;;;;;;;-1.32;100.00;101896.97;5039576;28;20029;-70
2023/12/07 00:42:26;;;;;;;18.13;9.30;;;;;;;-1.39;100.00;101887.84;5040872;28;20154;-70
2023/12/07 00:44:51;;;;;;;15.82;9.25;;;;;;;-1.34;100.00;101903.25;5038634;28;20112;-70
2023/12/07 00:47:16;;;;;;;19.48;10.00;;;;;;;-1.34;100.00;101906.72;5044936;28;20036;-70
2023/12/07 00:49:42;;;;;;;21.40;10.65;;;;;;;-1.37;100.00;101904.25;5035753;28;20040;-71
2023/12/07 00:52:08;;;;;;;18.58;8.80;;;;;;;-1.37;100.00;101908.66;5037703;28;20144;-70
2023/12/07 00:54:33;;;;;;;23.25;12.30;;;;;;;-1.42;100.00;101908.94;5045890;28;20044;-71
2023/12/07 00:56:59;;;;;;;23.30;12.40;;;;;;;-1.45;100.00;101909.13;5037928;28;20021;-71
2023/12/07 00:59:24;;;;;;;31.35;16.38;;;;;;;-1.40;100.00;101920.16;5042244;28;20086;-70
2023/12/07 01:01:50;;;;;;;22.20;10.75;;;;;;;-1.40;100.00;101912.31;5045390;28;20571;-70
2023/12/07 01:04:16;;;;;;;20.45;11.93;;;;;;;-1.43;100.00;101906.44;5033275;28;20481;-71
2023/12/07 01:06:42;;;;;;;21.77;11.93;;;;;;;-1.44;100.00;101912.56;5036433;28;20037;-70
2023/12/07 01:09:08;;;;;;;22.83;12.05;;;;;;;-1.44;100.00;101913.44;5038815;28;20061;-70
2023/12/07 01:11:34;;;;;;;23.52;12.57;;;;;;;-1.43;100.00;101911.66;5039655;28;20076;-70
2023/12/07 01:13:59;;;;;;;23.25;12.05;;;;;;;-1.41;100.00;101917.66;5041007;28;20116;-71
2023/12/07 01:16:25;;;;;;;24.30;12.27;;;;;;;-1.43;100.00;101911.66;5026292;28;20036;-70
2023/12/07 01:18:50;;;;;;;22.13;11.85;;;;;;;-1.43;100.00;101922.13;5041051;28;20052;-71
2023/12/07 01:21:15;;;;;;;19.92;10.85;;;;;;;-1.45;100.00;101916.97;5037207;28;20033;-71
2023/12/07 01:23:41;;;;;;;27.52;13.30;;;;;;;-1.46;100.00;101917.09;5035945;28;20072;-70
2023/12/07 01:26:06;;;;;;;24.60;11.93;;;;;;;-1.45;100.00;101922.22;5039406;28;20053;-71
2023/12/07 01:28:32;;;;;;;22.40;11.02;;;;;;;-1.42;100.00;101921.19;5032913;28;20083;-71
2023/12/07 01:30:57;;;;;;;21.88;12.07;;;;;;;-1.38;100.00;101920.06;5035025;28;20388;-70
2023/12/07 01:33:23;;;;;;;21.77;11.70;;;;;;;-1.44;100.00;101913.44;5038920;28;20036;-70
2023/12/07 01:35:48;;;;;;;22.92;11.90;;;;;;;-1.47;100.00;101915.38;5042506;28;20056;-70
2023/12/07 01:38:13;;;;;;;24.45;12.27;;;;;;;-1.49;100.00;101923.34;5042030;28;20116;-70
2023/12/07 01:40:39;;;;;;;23.92;10.85;;;;;;;-1.56;100.00;101922.00;5036719;28;20025;-71
2023/12/07 01:43:04;;;;;;;22.75;13.00;;;;;;;-1.56;100.00;101927.25;5041188;28;20127;-71
2023/12/07 01:45:30;;;;;;;23.77;11.63;;;;;;;-1.56;100.00;101916.78;5035187;28;20057;-70
2023/12/07 01:47:58;;;;;;;18.23;10.45;;;;;;;-1.59;100.00;101919.59;5031947;28;20052;-71
2023/12/07 01:50:24;;;;;;;21.30;10.60;;;;;;;-1.67;100.00;101922.66;5039414;28;20052;-71
2023/12/07 01:52:52;;;;;;;20.98;11.45;;;;;;;-1.67;100.00;101930.50;5041241;28;20436;-71
2023/12/07 01:55:18;;;;;;;22.90;12.70;;;;;;;-1.60;100.00;101936.19;5043454;28;20069;-71
2023/12/07 01:57:45;;;;;;;23.50;11.13;;;;;;;-1.51;100.00;101930.44;5036907;28;20072;-71
2023/12/07 02:00:12;;;;;;;23.40;13.35;;;;;;;-1.45;100.00;101930.06;5034286;28;20056;-70
2023/12/07 02:02:38;;;;;;;23.67;13.52;;;;;;;-1.42;100.00;101923.78;5038993;28;20109;-71
2023/12/07 02:05:04;;;;;;;24.80;11.77;;;;;;;-1.46;100.00;101928.38;5038506;28;20068;-71
2023/12/07 02:07:30;;;;;;;21.30;11.95;;;;;;;-1.51;100.00;101929.59;5038485;28;20037;-70
2023/12/07 02:09:57;;;;;;;25.02;11.52;;;;;;;-1.61;100.00;101930.13;5040475;28;20040;-70
2023/12/07 02:12:23;;;;;;;21.13;10.63;;;;;;;-1.69;100.00;101924.50;5033650;28;20052;-71
2023/12/07 02:14:49;;;;;;;28.40;14.13;;;;;;;-1.79;100.00;101918.13;5041995;28;20029;-70
2023/12/07 02:17:24;;;;;;;23.75;12.55;;;;;;;-1.76;100.00;101925.81;5038831;28;20085;-71
2023/12/07 02:20:00;;;;;;;23.73;13.10;;;;;;;-1.84;100.00;101920.19;5036936;28;20613;-71
2023/12/07 02:22:50;;;;;;;25.67;13.25;;;;;;;-1.90;100.00;101920.56;5038024;28;20070;-71
2023/12/07 02:25:18;;;;;;;22.45;12.38;;;;;;;-1.94;100.00;101924.25;5036309;28;20037;-70
2023/12/07 02:27:47;;;;;;;27.95;14.75;;;;;;;-1.91;100.00;101930.16;5040567;28;20088;-70
2023/12/07 02:30:13;;;;;;;25.35;12.75;;;;;;;-1.97;100.00;101927.91;5038226;28;20029;-71
2023/12/07 02:32:41;;;;;;;20.77;11.70;;;;;;;-2.00;100.00;101936.75;5031765;28;20025;-71
2023/12/07 02:35:08;;;;;;;23.38;12.35;;;;;;;-2.03;100.00;101936.94;5035632;28;20044;-70
2023/12/07 02:37:41;;;;;;;22.42;12.90;;;;;;;-2.06;100.00;101933.66;5040544;28;20087;-71
2023/12/07 02:40:10;;;;;;;26.42;14.50;;;;;;;-2.03;100.00;101936.09;5019471;28;20052;-70
2023/12/07 02:42:37;;;;;;;24.05;12.82;;;;;;;-2.03;100.00;101934.31;5038161;28;20391;-70
2023/12/07 02:45:04;;;;;;;30.30;14.32;;;;;;;-1.99;100.00;101924.56;5036045;28;20041;-71
2023/12/07 02:47:30;;;;;;;28.23;11.55;;;;;;;-1.99;100.00;101925.38;5040447;28;20041;-71
2023/12/07 02:49:55;;;;;;;22.80;12.13;;;;;;;-1.95;100.00;101927.81;5032487;28;20039;-71
2023/12/07 02:52:20;;;;;;;29.55;12.80;;;;;;;-1.93;100.00;101924.19;5040287;28;20387;-71
2023/12/07 02:54:46;;;;;;;24.30;13.10;;;;;;;-1.93;100.00;101918.13;5039130;28;20456;-71
2023/12/07 02:57:11;;;;;;;23.60;12.63;;;;;;;-1.85;100.00;101921.13;5040491;28;20558;-71
2023/12/07 02:59:36;;;;;;;32.15;16.02;;;;;;;-1.77;100.00;101922.34;5043330;28;20484;-70
2023/12/07 03:02:02;;;;;;;31.65;14.90;;;;;;;-1.71;100.00;101915.06;5042687;28;20087;-71
2023/12/07 03:04:28;;;;;;;28.10;14.32;;;;;;;-1.60;100.00;101912.66;5032845;28;20063;-71
2023/12/07 03:06:53;;;;;;;38.78;13.70;;;;;;;-1.60;100.00;101905.69;5040858;28;20037;-71
2023/12/07 03:09:18;;;;;;;32.03;15.50;;;;;;;-1.46;100.00;101915.31;5043795;28;20098;-71
2023/12/07 03:11:44;;;;;;;29.15;15.25;;;;;;;-1.39;100.00;101918.38;5040569;28;20045;-70
2023/12/07 03:14:09;;;;;;;26.50;14.80;;;;;;;-1.33;100.00;101918.03;5049180;28;20075;-71
2023/12/07 03:16:34;;;;;;;30.77;15.30;;;;;;;-1.25;100.00;101917.56;5048688;28;20055;-71
2023/12/07 03:19:01;;;;;;;39.22;19.35;;;;;;;-1.18;100.00;101924.94;5040958;28;20061;-71
2023/12/07 03:21:27;;;;;;;36.58;17.30;;;;;;;-1.17;100.00;101925.78;5042524;28;20035;-71
2023/12/07 03:23:52;;;;;;;36.72;16.92;;;;;;;-1.06;100.00;101923.34;5043683;28;20033;-71
2023/12/07 03:26:17;;;;;;;42.22;18.40;;;;;;;-1.01;100.00;101933.53;5042834;28;20032;-71
2023/12/07 03:28:43;;;;;;;37.17;16.50;;;;;;;-1.03;100.00;101925.75;5040508;28;20038;-71
2023/12/07 03:31:08;;;;;;;38.25;17.17;;;;;;;-0.97;100.00;101937.63;5039297;28;20163;-71
2023/12/07 03:33:33;;;;;;;34.90;16.92;;;;;;;-0.97;100.00;101940.25;5037851;28;20025;-71
2023/12/07 03:35:59;;;;;;;30.52;14.20;;;;;;;-0.96;100.00;101936.72;5036660;28;20032;-71
2023/12/07 03:38:24;;;;;;;40.30;13.80;;;;;;;-0.99;100.00;101945.59;5042255;28;20376;-70
2023/12/07 03:40:50;;;;;;;32.65;15.02;;;;;;;-1.00;100.00;101943.06;5044765;28;20037;-70
2023/12/07 03:43:18;;;;;;;35.92;15.18;;;;;;;-1.03;100.00;101938.84;5044078;28;20114;-70
2023/12/07 03:45:43;;;;;;;38.72;16.20;;;;;;;-1.05;100.00;101935.47;5044098;28;20040;-70
2023/12/07 03:48:08;;;;;;;43.80;15.38;;;;;;;-1.02;100.00;101937.06;5038227;28;20030;-70
2023/12/07 03:50:34;;;;;;;31.45;13.18;;;;;;;-1.02;100.00;101942.31;5043605;28;20040;-70
2023/12/07 03:52:59;;;;;;;40.85;14.25;;;;;;;-1.03;100.00;101933.63;5038520;28;20035;-71
2023/12/07 03:55:25;;;;;;;29.98;15.07;;;;;;;-1.04;100.00;101937.19;5036382;28;20602;-70
2023/12/07 03:57:50;;;;;;;31.23;13.98;;;;;;;-1.05;100.00;101940.72;5040701;28;20143;-70
2023/12/07 04:00:16;;;;;;;57.13;16.67;;;;;;;-1.03;100.00;101946.69;5041097;28;20597;-70
2023/12/07 04:02:41;;;;;;;29.90;13.88;;;;;;;-1.02;100.00;101952.78;5048445;28;20119;-71
2023/12/07 04:05:07;;;;;;;31.83;15.13;;;;;;;-1.01;100.00;101960.53;5038451;28;20060;-70
2023/12/07 04:07:32;;;;;;;36.47;13.68;;;;;;;-1.02;100.00;101958.00;5043301;28;20033;-70
2023/12/07 04:09:58;;;;;;;46.35;17.50;;;;;;;-0.99;100.00;101969.16;5040143;28;20118;-70
2023/12/07 04:12:23;;;;;;;35.08;13.45;;;;;;;-0.99;100.00;101960.47;5039469;28;20036;-70
2023/12/07 04:14:50;;;;;;;28.23;15.25;;;;;;;-0.97;100.00;101961.19;5035548;28;20041;-71
2023/12/07 04:17:15;;;;;;;32.15;15.10;;;;;;;-0.96;100.00;101970.75;5042515;28;20021;-71
2023/12/07 04:19:40;;;;;;;40.30;13.18;;;;;;;-1.00;100.00;101954.38;5042625;28;20087;-70
2023/12/07 04:22:06;;;;;;;24.45;13.85;;;;;;;-0.96;100.00;101970.75;5043493;28;20102;-71
2023/12/07 04:24:31;;;;;;;34.25;15.75;;;;;;;-0.96;100.00;101962.88;5040907;28;20112;-70
2023/12/07 04:26:57;;;;;;;48.00;14.95;;;;;;;-0.97;100.00;101971.66;5039468;28;20091;-71
2023/12/07 04:29:22;;;;;;;29.35;14.50;;;;;;;-1.00;100.00;101961.38;5046405;28;20057;-70
2023/12/07 04:31:47;;;;;;;36.78;14.32;;;;;;;-0.97;100.00;101969.03;5037329;28;20095;-70
2023/12/07 04:34:13;;;;;;;34.83;15.98;;;;;;;-0.96;100.00;101976.81;5044708;28;21050;-71
2023/12/07 04:36:38;;;;;;;24.40;11.07;;;;;;;-0.94;100.00;101972.34;5034280;28;20589;-70
2023/12/07 04:39:03;;;;;;;40.58;17.20;;;;;;;-1.01;100.00;101960.53;5040755;28;20025;-71
2023/12/07 04:41:29;;;;;;;42.88;16.67;;;;;;;-1.01;100.00;101962.34;5038468;28;20029;-71
2023/12/07 04:43:54;;;;;;;29.15;13.68;;;;;;;-0.95;100.00;101972.41;5038560;28;20115;-70
2023/12/07 04:46:20;;;;;;;33.67;17.95;;;;;;;-0.95;100.00;101972.41;5025590;28;20039;-71
2023/12/07 04:48:45;;;;;;;30.90;15.05;;;;;;;-0.93;100.00;101970.56;5041381;28;20025;-70
2023/12/07 04:51:11;;;;;;;44.75;14.45;;;;;;;-0.93;100.00;101970.56;5048041;28;20033;-71
2023/12/07 04:53:36;;;;;;;37.45;16.20;;;;;;;-0.93;100.00;101968.78;5043881;28;20444;-71
2023/12/07 04:56:02;;;;;;;30.92;13.52;;;;;;;-0.94;100.00;101974.94;5038112;28;20044;-71
2023/12/07 04:58:27;;;;;;;41.95;15.88;;;;;;;-0.94;100.00;101972.34;5044321;28;20078;-71
2023/12/07 05:00:52;;;;;;;36.67;14.07;;;;;;;-0.89;100.00;101977.31;5031266;28;20030;-71
2023/12/07 05:03:18;;;;;;;33.40;14.18;;;;;;;-0.89;100.00;101978.13;5006267;28;20049;-71
2023/12/07 05:05:43;;;;;;;27.55;13.65;;;;;;;-0.87;100.00;101970.16;5035196;28;20029;-71
2023/12/07 05:08:08;;;;;;;31.25;12.45;;;;;;;-0.89;100.00;101965.03;5040901;28;20464;-70
2023/12/07 05:10:34;;;;;;;29.90;13.23;;;;;;;-0.89;100.00;101970.28;5043341;28;20061;-71
2023/12/07 05:12:59;;;;;;;31.45;13.18;;;;;;;-0.93;100.00;101953.06;5042336;28;20818;-71
2023/12/07 05:15:25;;;;;;;41.17;15.13;;;;;;;-0.93;100.00;101952.22;5042577;28;20134;-71
2023/12/07 05:17:50;;;;;;;26.98;11.98;;;;;;;-0.95;100.00;101949.69;5036295;28;20061;-71
2023/12/07 05:20:16;;;;;;;33.75;12.05;;;;;;;-0.94;100.00;101951.38;5038652;28;20115;-71
2023/12/07 05:22:41;;;;;;;23.67;10.80;;;;;;;-0.96;100.00;101958.50;5047174;28;20028;-70
2023/12/07 05:25:06;;;;;;;28.77;12.27;;;;;;;-0.96;100.00;101963.72;5043062;28;20056;-71
2023/12/07 05:27:32;;;;;;;26.60;12.95;;;;;;;-0.95;100.00;101957.53;5043720;28;20044;-70
2023/12/07 05:29:57;;;;;;;27.42;11.75;;;;;;;-0.93;100.00;101957.47;5013980;28;20087;-70
2023/12/07 05:32:22;;;;;;;34.60;11.60;;;;;;;-0.93;100.00;101960.91;5019891;28;20041;-71
2023/12/07 05:34:48;;;;;;;50.80;14.65;;;;;;;-0.96;100.00;101945.41;5029941;28;20033;-71
2023/12/07 05:37:13;;;;;;;31.58;11.98;;;;;;;-0.94;100.00;101956.63;5040212;28;20404;-71
2023/12/07 05:39:38;;;;;;;34.15;10.27;;;;;;;-0.95;100.00;101948.84;5019439;28;20048;-71
2023/12/07 05:42:05;;;;;;;32.17;11.45;;;;;;;-0.96;100.00;101953.25;5043514;28;20033;-70
2023/12/07 05:44:31;;;;;;;37.92;14.40;;;;;;;-1.02;100.00;101942.31;5043536;28;20036;-71
2023/12/07 05:46:57;;;;;;;24.05;11.10;;;;;;;-1.00;100.00;101949.13;5044614;28;20552;-71
2023/12/07 05:49:23;;;;;;;46.35;14.05;;;;;;;-1.01;100.00;101938.75;5036215;28;20034;-72
2023/12/07 05:51:49;;;;;;;28.35;10.75;;;;;;;-1.00;100.00;101938.66;5039898;28;20036;-73
2023/12/07 05:54:14;;;;;;;24.73;9.88;;;;;;;-1.00;100.00;101949.13;5034418;28;20041;-71
2023/12/07 05:56:40;;;;;;;29.27;11.15;;;;;;;-1.02;100.00;101937.06;5033394;28;20021;-71
2023/12/07 05:59:06;;;;;;;41.58;10.65;;;;;;;-1.02;100.00;101947.53;5040764;28;20791;-71
2023/12/07 06:01:32;;;;;;;31.00;9.48;;;;;;;-1.02;100.00;101943.16;5040961;28;20545;-71
2023/12/07 06:03:58;;;;;;;34.25;9.95;;;;;;;-1.03;100.00;101944.09;5024694;28;20090;-71
2023/12/07 06:06:23;;;;;;;27.52;10.13;;;;;;;-1.02;100.00;101935.31;5015284;28;20148;-71
2023/12/07 06:08:49;;;;;;;29.25;11.27;;;;;;;-1.01;100.00;101930.91;5036768;28;20033;-71
2023/12/07 06:11:14;;;;;;;21.63;7.85;;;;;;;-1.00;100.00;101924.72;5039740;28;20509;-71
2023/12/07 06:13:40;;;;;;;27.35;9.65;;;;;;;-0.99;100.00;101929.06;5016717;28;20763;-71
2023/12/07 06:16:06;;;;;;;34.78;12.85;;;;;;;-0.98;100.00;101936.78;5040594;28;20556;-71
2023/12/07 06:18:31;;;;;;;25.73;9.35;;;;;;;-0.98;100.00;101942.03;5043091;28;20021;-71
2023/12/07 06:20:57;;;;;;;21.90;8.95;;;;;;;-0.98;100.00;101942.03;5041275;28;20476;-71
2023/12/07 06:23:22;;;;;;;31.20;9.23;;;;;;;-0.96;100.00;101949.81;5042658;28;20033;-71
2023/12/07 06:25:47;;;;;;;22.63;8.18;;;;;;;-0.96;100.00;101952.41;5035406;28;20037;-71
2023/12/07 06:28:13;;;;;;;29.13;9.15;;;;;;;-0.96;100.00;101953.25;5040003;28;20127;-71
2023/12/07 06:30:39;;;;;;;85.38;15.80;;;;;;;-0.96;100.00;101948.00;5038226;28;20075;-71
2023/12/07 06:33:04;;;;;;;26.08;11.00;;;;;;;-0.95;100.00;101954.94;5037232;28;20040;-71
2023/12/07 06:35:30;;;;;;;21.45;7.63;;;;;;;-0.95;100.00;101954.94;5040474;28;20128;-71
2023/12/07 06:37:55;;;;;;;30.88;9.10;;;;;;;-0.95;100.00;101954.94;5030886;28;20025;-71
2023/12/07 06:40:21;;;;;;;46.75;8.60;;;;;;;-0.98;100.00;101949.03;5038982;28;20033;-71
2023/12/07 06:42:48;;;;;;;20.30;8.45;;;;;;;-0.96;100.00;101950.63;5030801;28;20120;-71
2023/12/07 06:45:14;;;;;;;21.42;8.13;;;;;;;-0.92;100.00;101953.91;5040280;28;20032;-71
2023/12/07 06:47:42;;;;;;;29.25;9.93;;;;;;;-0.90;100.00;101955.47;5036037;28;20029;-71
2023/12/07 06:50:10;;;;;;;26.02;7.50;;;;;;;-0.90;100.00;101950.25;5036430;28;20029;-71
2023/12/07 06:52:37;;;;;;;31.45;9.38;;;;;;;-0.90;100.00;101944.16;5020187;28;20434;-71
2023/12/07 06:55:03;;;;;;;31.77;8.57;;;;;;;-0.86;100.00;101948.28;5039894;28;20564;-71
2023/12/07 06:57:28;;;;;;;28.88;9.95;;;;;;;-0.84;100.00;101945.56;5034562;28;20113;-71
2023/12/07 06:59:53;;;;;;;33.00;8.48;;;;;;;-0.84;100.00;101940.31;5040601;28;20029;-71
2023/12/07 07:02:19;;;;;;;32.58;10.15;;;;;;;-0.86;100.00;101939.56;5037257;28;20103;-71
2023/12/07 07:04:44;;;;;;;23.13;6.55;;;;;;;-0.81;100.00;101932.28;5020971;28;20392;-71
2023/12/07 07:07:10;;;;;;;23.27;9.38;;;;;;;-0.81;100.00;101927.91;5037535;28;20040;-71
2023/12/07 07:09:35;;;;;;;23.83;7.10;;;;;;;-0.79;100.00;101922.53;5041971;28;20494;-71
2023/12/07 07:12:00;;;;;;;30.23;8.38;;;;;;;-0.77;100.00;101932.00;5034728;28;20061;-71
2023/12/07 07:14:26;;;;;;;23.88;9.20;;;;;;;-0.74;100.00;101926.56;5031267;28;20985;-71
2023/12/07 07:16:52;;;;;;;21.35;7.55;;;;;;;-0.70;100.00;101930.69;5019243;28;20118;-71
2023/12/07 07:19:17;;;;;;;27.70;9.93;;;;;;;-0.68;100.00;101927.97;5034136;28;20026;-71
2023/12/07 07:21:43;;;;;;;24.00;7.95;;;;;;;-0.68;100.00;101925.34;5033020;28;20032;-71
2023/12/07 07:24:09;;;;;;;28.48;9.70;;;;;;;-0.68;100.00;101915.72;5039335;28;20644;-71
2023/12/07 07:26:34;;;;;;;27.48;9.05;;;;;;;-0.67;100.00;101920.00;5043127;28;20037;-71
2023/12/07 07:29:00;;;;;;;22.00;7.28;;;;;;;-0.68;100.00;101927.97;5028347;28;20087;-71
2023/12/07 07:31:25;;;;;;;32.97;9.88;;;;;;;-0.71;100.00;101922.91;5036356;28;20033;-71
2023/12/07 07:33:50;;;;;;;17.40;6.88;;;;;;;-0.64;100.00;101937.31;5017866;28;20033;-71
2023/12/07 07:36:16;;;;;;;25.10;9.93;;;;;;;-0.63;100.00;101938.97;5039468;28;20061;-71
2023/12/07 07:38:42;;;;;;;22.75;7.72;;;;;;;-0.63;100.00;101935.53;5014880;28;20096;-71
2023/12/07 07:41:07;;;;;;;24.20;8.68;;;;;;;-0.62;100.00;101942.47;5037385;28;20044;-71
2023/12/07 07:43:34;;;;;;;24.67;8.18;;;;;;;-0.61;100.00;101946.75;5030829;28;20029;-71
2023/12/07 07:46:00;;;;;;;43.17;11.20;;;;;;;-0.68;100.00;101938.44;5039846;28;20037;-71
2023/12/07 07:48:25;;;;;;;25.55;10.50;;;;;;;-0.63;100.00;101953.84;5042185;28;20476;-71
2023/12/07 07:50:51;;;;;;;26.63;9.88;;;;;;;-0.61;100.00;101952.81;5046779;28;20029;-71
2023/12/07 07:53:17;;;;;;;27.52;10.05;;;;;;;-0.58;100.00;101957.03;5040282;28;20029;-71
2023/12/07 07:55:42;;;;;;;25.73;9.80;;;;;;;-0.56;100.00;101948.13;5048977;28;20400;-71
2023/12/07 07:58:08;;;;;;;26.13;10.52;;;;;;;-0.58;100.00;101942.16;5035746;28;20025;-71
2023/12/07 08:00:34;;;;;;;32.80;12.05;;;;;;;-0.53;100.00;101944.47;5047710;28;20036;-71
2023/12/07 08:03:00;;;;;;;26.58;11.40;;;;;;;-0.51;100.00;101945.22;5040258;28;20037;-71
2023/12/07 08:05:25;;;;;;;35.13;13.35;;;;;;;-0.55;100.00;101941.97;5043795;28;20036;-71
2023/12/07 08:07:51;;;;;;;43.30;14.40;;;;;;;-0.51;100.00;101960.94;5037220;28;20057;-71
2023/12/07 08:10:16;;;;;;;39.15;15.43;;;;;;;-0.50;100.00;101950.38;5042809;28;20058;-71
2023/12/07 08:12:42;;;;;;;37.75;12.70;;;;;;;-0.52;100.00;101944.41;5041338;28;20076;-71
2023/12/07 08:15:10;;;;;;;32.10;13.30;;;;;;;-0.51;100.00;101937.38;5047199;28;20044;-71
2023/12/07 08:17:38;;;;;;;37.95;12.05;;;;;;;-0.48;100.00;101938.00;5037455;28;20039;-70
2023/12/07 08:20:05;;;;;;;33.70;14.70;;;;;;;-0.48;100.00;101943.25;5039350;28;20025;-71
2023/12/07 08:22:31;;;;;;;58.85;14.90;;;;;;;-0.42;100.00;101942.00;5037773;28;20036;-70
2023/12/07 08:24:56;;;;;;;34.20;11.52;;;;;;;-0.41;100.00;101945.50;5035891;28;20122;-71
2023/12/07 08:27:21;;;;;;;32.88;13.30;;;;;;;-0.41;100.00;101943.72;5037327;28;20045;-71
2023/12/07 08:29:47;;;;;;;37.35;13.95;;;;;;;-0.41;100.00;101945.50;5037695;28;20040;-71
2023/12/07 08:32:14;;;;;;;53.90;13.98;;;;;;;-0.41;100.00;101942.88;5037195;28;20025;-71
2023/12/07 08:34:39;;;;;;;35.03;12.48;;;;;;;-0.35;100.00;101948.53;5036413;28;20036;-70
2023/12/07 08:37:05;;;;;;;30.98;11.15;;;;;;;-0.33;100.00;101948.47;5024319;28;20037;-71
2023/12/07 08:39:30;;;;;;;27.45;10.57;;;;;;;-0.35;100.00;101945.09;5037041;28;20033;-71
2023/12/07 08:41:55;;;;;;;29.75;12.13;;;;;;;-0.39;100.00;101933.97;5039635;28;20028;-71
2023/12/07 08:44:21;;;;;;;23.50;10.43;;;;;;;-0.36;100.00;101941.63;5038771;28;20404;-71
2023/12/07 08:46:46;;;;;;;24.02;10.20;;;;;;;-0.32;100.00;101947.50;5040268;28;20067;-71
2023/12/07 08:49:11;;;;;;;32.15;11.45;;;;;;;-0.31;100.00;101941.34;5039656;28;20032;-70
2023/12/07 08:51:37;;;;;;;33.95;14.13;;;;;;;-0.28;100.00;101935.91;5040930;28;20079;-70
2023/12/07 08:54:02;;;;;;;31.75;12.15;;;;;;;-0.24;100.00;101940.00;5039634;28;20510;-71
2023/12/07 08:56:28;;;;;;;34.85;14.40;;;;;;;-0.20;100.00;101935.41;5041052;28;20561;-70
2023/12/07 08:58:53;;;;;;;25.55;10.75;;;;;;;-0.19;100.00;101937.06;5038761;28;20021;-71
2023/12/07 09:01:18;;;;;;;36.25;12.52;;;;;;;-0.16;100.00;101942.13;5038499;28;20033;-71
2023/12/07 09:03:44;;;;;;;27.45;12.40;;;;;;;-0.14;100.00;101941.06;5040658;28;20502;-70
2023/12/07 09:06:09;;;;;;;30.25;11.65;;;;;;;-0.10;100.00;101933.88;5036182;28;20036;-75
2023/12/07 09:08:35;;;;;;;28.77;11.35;;;;;;;-0.08;100.00;101938.06;5037573;28;20037;-75
2023/12/07 09:11:00;;;;;;;27.10;11.25;;;;;;;-0.05;100.00;101934.41;5042936;28;20061;-75
2023/12/07 09:13:25;;;;;;;27.95;11.40;;;;;;;-0.03;100.00;101936.00;5036913;28;20049;-74
2023/12/07 09:15:51;;;;;;;33.33;13.02;;;;;;;-0.03;100.00;101943.84;5037139;28;20033;-75
2023/12/07 09:18:16;;;;;;;28.60;11.70;;;;;;;0.02;100.00;101932.19;5034666;28;20021;-75
2023/12/07 09:20:47;;;;;;;34.40;11.13;;;;;;;0.01;100.00;101918.25;5043380;28;20451;-75
2023/12/07 09:23:14;;;;;;;28.27;12.48;;;;;;;0.08;100.00;101926.53;5037661;28;20041;-75
2023/12/07 09:25:40;;;;;;;27.00;11.10;;;;;;;0.11;100.00;101929.00;5039971;28;20017;-75
2023/12/07 09:28:06;;;;;;;25.90;9.82;;;;;;;0.12;100.00;101923.63;5038008;28;20090;-75
2023/12/07 09:30:33;;;;;;;28.50;12.90;;;;;;;0.15;100.00;101912.09;5039276;28;20472;-76
2023/12/07 09:32:59;;;;;;;25.85;11.73;;;;;;;0.21;100.00;101927.44;5017936;28;20092;-75
2023/12/07 09:35:24;;;;;;;29.55;13.43;;;;;;;0.25;100.00;101933.31;5036990;28;20098;-71
2023/12/07 09:37:50;;;;;;;27.63;11.45;;;;;;;0.29;100.00;101927.75;5027825;28;20037;-71
2023/12/07 09:40:17;;;;;;;33.22;13.75;;;;;;;0.30;100.00;101913.69;5041401;28;20049;-72
2023/12/07 09:42:43;;;;;;;31.70;12.80;;;;;;;0.34;100.00;101909.06;5039818;28;20033;-72
2023/12/07 09:45:08;;;;;;;29.02;12.18;;;;;;;0.40;100.00;101914.75;5036551;28;20083;-73
2023/12/07 09:47:37;;;;;;;26.40;12.07;;;;;;;0.45;100.00;101914.44;5038599;28;20061;-72
2023/12/07 09:50:03;;;;;;;26.98;12.50;;;;;;;0.46;100.00;101908.22;5036754;28;20601;-72
2023/12/07 09:52:28;;;;;;;29.73;12.52;;;;;;;0.51;100.00;101911.38;5035682;28;20119;-74
2023/12/07 09:54:56;;;;;;;27.75;11.57;;;;;;;0.52;100.00;101902.56;5037521;28;20128;-74
2023/12/07 09:57:22;;;;;;;28.92;11.52;;;;;;;0.58;100.00;101902.16;5040041;28;20033;-74
2023/12/07 09:59:48;;;;;;;28.38;12.25;;;;;;;0.63;100.00;101894.81;5037088;28;20131;-74
2023/12/07 10:02:13;;;;;;;24.67;10.15;;;;;;;0.70;100.00;101887.31;5036204;28;20123;-74
2023/12/07 10:04:39;;;;;;;27.13;11.40;;;;;;;0.79;100.00;101889.31;5035699;28;20029;-74
2023/12/07 10:07:08;;;;;;;29.48;13.27;;;;;;;0.84;100.00;101887.22;5036373;28;20109;-74
2023/12/07 10:09:37;;;;;;;28.17;10.50;;;;;;;0.95;100.00;101875.94;5034800;28;20037;-74
2023/12/07 10:12:04;;;;;;;29.80;10.63;;;;;;;1.00;100.00;101865.13;5031469;28;20087;-74
2023/12/07 10:14:30;;;;;;;28.65;11.35;;;;;;;1.08;100.00;101863.63;5036422;28;20041;-74
2023/12/07 10:16:56;;;;;;;28.55;13.75;;;;;;;1.22;100.00;101857.38;5040843;28;20029;-73
2023/12/07 10:19:22;;;;;;;28.50;12.60;;;;;;;1.27;100.00;101843.91;5035963;28;20025;-75
2023/12/07 10:21:51;;;;;;;28.30;10.85;;;;;;;1.33;100.00;101843.44;5039620;28;20028;-77
2023/12/07 10:24:25;;;;;;;32.65;11.95;;;;;;;1.37;100.00;101844.91;5016837;28;20497;-74
2023/12/07 10:26:51;;;;;;;30.15;13.05;;;;;;;1.38;100.00;101833.44;5030572;28;20037;-73
2023/12/07 10:29:20;;;;;;;26.55;11.25;;;;;;;1.45;100.00;101829.41;5039543;28;20041;-73
2023/12/07 10:31:47;;;;;;;26.05;11.52;;;;;;;1.54;100.00;101833.13;5041961;28;20468;-71
2023/12/07 10:34:13;;;;;;;27.10;11.65;;;;;;;1.58;100.00;101836.41;5034258;28;20025;-73
2023/12/07 10:36:38;;;;;;;26.52;11.20;;;;;;;1.61;100.00;101823.03;5045175;28;20040;-73
2023/12/07 10:39:06;;;;;;;25.48;12.15;;;;;;;1.64;100.00;101817.53;5038997;28;20040;-73
2023/12/07 10:41:33;;;;;;;25.85;10.95;;;;;;;1.61;100.00;101802.81;5034876;28;20376;-75
2023/12/07 10:44:04;;;;;;;25.25;11.55;;;;;;;1.67;100.00;101809.41;5031285;28;20134;-72
2023/12/07 10:46:32;;;;;;;27.67;12.05;;;;;;;1.72;100.00;101820.41;5036388;28;20035;-75
2023/12/07 10:49:04;;;;;;;24.63;11.85;;;;;;;1.70;100.00;101804.78;5033926;28;20037;-74
2023/12/07 10:51:43;;;;;;;;;;;;;;;1.78;100.00;101808.59;5036291;28;20106;-74
2023/12/07 10:54:14;;;;;;;25.70;11.35;;;;;;;1.72;100.00;101799.38;5037484;28;19905;-74
2023/12/07 10:56:43;;;;;;;26.02;12.27;;;;;;;1.66;100.00;101782.28;5031499;28;20039;-74
2023/12/07 10:59:13;;;;;;;20.77;9.85;;;;;;;1.66;100.00;101797.22;5034964;28;20032;-74